sensor_id;sensor_type;location;lat;lon;timestamp;P1;durP1;ratioP1;P2;durP2;ratioP2
32932;SDS011;19444;50.518;10.870;2023-07-13T00:00:00;2.42;;;0.90;;
32932;SDS011;19444;50.518;10.870;2023-07-13T00:02:57;1.75;;;0.75;;
32932;SDS011;19444;50.518;10.870;2023-07-13T00:05:57;1.50;;;1.05;;
32932;SDS011;19444;50.518;10.870;2023-07-13T00:08:56;2.28;;;1.00;;
32932;SDS011;19444;50.518;10.870;2023-07-13T00:11:54;1.10;;;0.68;;
32932;SDS011;19444;50.518;10.870;2023-07-13T00:14:54;2.42;;;0.90;;
32932;SDS011;19444;50.518;10.870;2023-07-13T00:17:56;1.55;;;0.70;;
32932;SDS011;19444;50.518;10.870;2023-07-13T00:20:53;2.53;;;1.15;;
32932;SDS011;19444;50.518;10.870;2023-07-13T00:23:49;2.60;;;0.98;;
32932;SDS011;19444;50.518;10.870;2023-07-13T00:26:46;1.30;;;0.70;;
32932;SDS011;19444;50.518;10.870;2023-07-13T00:29:43;2.58;;;0.90;;
32932;SDS011;19444;50.518;10.870;2023-07-13T00:32:40;2.42;;;0.98;;
32932;SDS011;19444;50.518;10.870;2023-07-13T00:35:37;1.45;;;0.80;;
32932;SDS011;19444;50.518;10.870;2023-07-13T00:38:35;1.98;;;0.82;;
32932;SDS011;19444;50.518;10.870;2023-07-13T00:41:33;1.38;;;0.70;;
32932;SDS011;19444;50.518;10.870;2023-07-13T00:44:30;1.33;;;0.60;;
32932;SDS011;19444;50.518;10.870;2023-07-13T00:47:27;2.58;;;0.80;;
32932;SDS011;19444;50.518;10.870;2023-07-13T00:50:24;3.15;;;1.00;;
32932;SDS011;19444;50.518;10.870;2023-07-13T00:53:21;2.67;;;1.10;;
32932;SDS011;19444;50.518;10.870;2023-07-13T00:56:19;1.80;;;0.90;;
32932;SDS011;19444;50.518;10.870;2023-07-13T00:59:16;2.97;;;0.82;;
32932;SDS011;19444;50.518;10.870;2023-07-13T01:02:16;2.17;;;0.80;;
32932;SDS011;19444;50.518;10.870;2023-07-13T01:05:14;1.55;;;0.80;;
32932;SDS011;19444;50.518;10.870;2023-07-13T01:08:14;2.70;;;0.90;;
32932;SDS011;19444;50.518;10.870;2023-07-13T01:11:12;1.50;;;0.80;;
32932;SDS011;19444;50.518;10.870;2023-07-13T01:14:17;2.25;;;0.82;;
32932;SDS011;19444;50.518;10.870;2023-07-13T01:17:14;3.13;;;0.90;;
32932;SDS011;19444;50.518;10.870;2023-07-13T01:20:11;2.28;;;1.05;;
32932;SDS011;19444;50.518;10.870;2023-07-13T01:23:09;2.58;;;0.70;;
32932;SDS011;19444;50.518;10.870;2023-07-13T01:26:09;2.15;;;0.93;;
32932;SDS011;19444;50.518;10.870;2023-07-13T01:29:07;2.83;;;1.25;;
32932;SDS011;19444;50.518;10.870;2023-07-13T01:32:04;2.25;;;1.00;;
32932;SDS011;19444;50.518;10.870;2023-07-13T01:35:04;1.92;;;1.00;;
32932;SDS011;19444;50.518;10.870;2023-07-13T01:38:01;1.25;;;0.80;;
32932;SDS011;19444;50.518;10.870;2023-07-13T01:40:59;1.15;;;0.80;;
32932;SDS011;19444;50.518;10.870;2023-07-13T01:43:56;4.10;;;1.27;;
32932;SDS011;19444;50.518;10.870;2023-07-13T01:46:53;2.10;;;0.90;;
32932;SDS011;19444;50.518;10.870;2023-07-13T01:49:50;2.55;;;0.93;;
32932;SDS011;19444;50.518;10.870;2023-07-13T01:52:48;5.20;;;1.08;;
32932;SDS011;19444;50.518;10.870;2023-07-13T01:55:44;2.65;;;1.38;;
32932;SDS011;19444;50.518;10.870;2023-07-13T01:58:41;3.00;;;1.13;;
32932;SDS011;19444;50.518;10.870;2023-07-13T02:01:38;2.15;;;1.10;;
32932;SDS011;19444;50.518;10.870;2023-07-13T02:04:35;2.78;;;1.08;;
32932;SDS011;19444;50.518;10.870;2023-07-13T02:07:32;3.25;;;0.90;;
32932;SDS011;19444;50.518;10.870;2023-07-13T02:10:29;2.75;;;1.20;;
32932;SDS011;19444;50.518;10.870;2023-07-13T02:13:26;3.67;;;1.10;;
32932;SDS011;19444;50.518;10.870;2023-07-13T02:16:23;1.98;;;0.90;;
32932;SDS011;19444;50.518;10.870;2023-07-13T02:19:20;1.20;;;0.90;;
32932;SDS011;19444;50.518;10.870;2023-07-13T02:22:17;2.22;;;1.00;;
32932;SDS011;19444;50.518;10.870;2023-07-13T02:25:14;1.20;;;1.10;;
32932;SDS011;19444;50.518;10.870;2023-07-13T02:28:11;3.42;;;1.00;;
32932;SDS011;19444;50.518;10.870;2023-07-13T02:31:09;1.90;;;1.10;;
32932;SDS011;19444;50.518;10.870;2023-07-13T02:34:10;1.88;;;1.00;;
32932;SDS011;19444;50.518;10.870;2023-07-13T02:37:07;2.40;;;1.02;;
32932;SDS011;19444;50.518;10.870;2023-07-13T02:40:04;2.95;;;1.20;;
32932;SDS011;19444;50.518;10.870;2023-07-13T02:43:04;3.05;;;1.00;;
32932;SDS011;19444;50.518;10.870;2023-07-13T02:46:01;2.20;;;1.15;;
32932;SDS011;19444;50.518;10.870;2023-07-13T02:49:04;1.35;;;0.90;;
32932;SDS011;19444;50.518;10.870;2023-07-13T02:52:01;2.25;;;0.98;;
32932;SDS011;19444;50.518;10.870;2023-07-13T02:54:58;2.75;;;1.00;;
32932;SDS011;19444;50.518;10.870;2023-07-13T02:57:55;3.92;;;1.30;;
32932;SDS011;19444;50.518;10.870;2023-07-13T03:00:53;1.98;;;0.90;;
32932;SDS011;19444;50.518;10.870;2023-07-13T03:03:52;2.97;;;1.50;;
32932;SDS011;19444;50.518;10.870;2023-07-13T03:06:49;1.67;;;0.90;;
32932;SDS011;19444;50.518;10.870;2023-07-13T03:09:46;2.08;;;1.17;;
32932;SDS011;19444;50.518;10.870;2023-07-13T03:12:43;2.03;;;1.20;;
32932;SDS011;19444;50.518;10.870;2023-07-13T03:15:40;4.20;;;1.50;;
32932;SDS011;19444;50.518;10.870;2023-07-13T03:18:37;3.65;;;1.17;;
32932;SDS011;19444;50.518;10.870;2023-07-13T03:21:34;2.28;;;1.33;;
32932;SDS011;19444;50.518;10.870;2023-07-13T03:24:32;3.95;;;1.42;;
32932;SDS011;19444;50.518;10.870;2023-07-13T03:27:34;1.00;;;0.80;;
32932;SDS011;19444;50.518;10.870;2023-07-13T03:30:31;3.75;;;1.15;;
32932;SDS011;19444;50.518;10.870;2023-07-13T03:33:28;1.30;;;0.80;;
32932;SDS011;19444;50.518;10.870;2023-07-13T03:36:26;2.88;;;1.27;;
32932;SDS011;19444;50.518;10.870;2023-07-13T03:39:26;3.85;;;1.38;;
32932;SDS011;19444;50.518;10.870;2023-07-13T03:42:23;2.65;;;1.27;;
32932;SDS011;19444;50.518;10.870;2023-07-13T03:45:19;2.50;;;1.45;;
32932;SDS011;19444;50.518;10.870;2023-07-13T03:48:16;1.58;;;1.10;;
32932;SDS011;19444;50.518;10.870;2023-07-13T03:51:14;1.95;;;1.15;;
32932;SDS011;19444;50.518;10.870;2023-07-13T03:54:12;1.95;;;1.15;;
32932;SDS011;19444;50.518;10.870;2023-07-13T03:57:10;2.58;;;1.30;;
32932;SDS011;19444;50.518;10.870;2023-07-13T04:00:07;4.53;;;1.38;;
32932;SDS011;19444;50.518;10.870;2023-07-13T04:03:05;1.92;;;1.25;;
32932;SDS011;19444;50.518;10.870;2023-07-13T04:06:02;2.08;;;1.10;;
32932;SDS011;19444;50.518;10.870;2023-07-13T04:09:03;2.53;;;1.38;;
32932;SDS011;19444;50.518;10.870;2023-07-13T04:12:05;1.67;;;1.20;;
32932;SDS011;19444;50.518;10.870;2023-07-13T04:15:02;3.03;;;1.50;;
32932;SDS011;19444;50.518;10.870;2023-07-13T04:17:59;3.03;;;1.30;;
32932;SDS011;19444;50.518;10.870;2023-07-13T04:20:56;3.67;;;1.10;;
32932;SDS011;19444;50.518;10.870;2023-07-13T04:23:53;3.15;;;1.42;;
32932;SDS011;19444;50.518;10.870;2023-07-13T04:26:50;2.90;;;1.35;;
32932;SDS011;19444;50.518;10.870;2023-07-13T04:29:47;2.28;;;1.20;;
32932;SDS011;19444;50.518;10.870;2023-07-13T04:32:44;2.25;;;1.42;;
32932;SDS011;19444;50.518;10.870;2023-07-13T04:35:42;4.18;;;1.33;;
32932;SDS011;19444;50.518;10.870;2023-07-13T04:38:40;2.03;;;1.40;;
32932;SDS011;19444;50.518;10.870;2023-07-13T04:41:37;1.95;;;1.40;;
32932;SDS011;19444;50.518;10.870;2023-07-13T04:44:34;4.13;;;1.50;;
32932;SDS011;19444;50.518;10.870;2023-07-13T04:47:31;3.17;;;1.30;;
32932;SDS011;19444;50.518;10.870;2023-07-13T04:50:28;3.28;;;1.30;;
32932;SDS011;19444;50.518;10.870;2023-07-13T04:53:25;2.92;;;1.40;;
32932;SDS011;19444;50.518;10.870;2023-07-13T04:56:23;4.32;;;1.67;;
32932;SDS011;19444;50.518;10.870;2023-07-13T04:59:20;4.43;;;1.63;;
32932;SDS011;19444;50.518;10.870;2023-07-13T05:02:17;2.70;;;1.40;;
32932;SDS011;19444;50.518;10.870;2023-07-13T05:05:17;3.93;;;1.30;;
32932;SDS011;19444;50.518;10.870;2023-07-13T05:08:13;3.80;;;1.70;;
32932;SDS011;19444;50.518;10.870;2023-07-13T05:11:10;4.20;;;1.67;;
32932;SDS011;19444;50.518;10.870;2023-07-13T05:14:08;3.00;;;1.67;;
32932;SDS011;19444;50.518;10.870;2023-07-13T05:17:06;3.17;;;1.77;;
32932;SDS011;19444;50.518;10.870;2023-07-13T05:20:02;3.05;;;1.80;;
32932;SDS011;19444;50.518;10.870;2023-07-13T05:23:00;2.05;;;1.50;;
32932;SDS011;19444;50.518;10.870;2023-07-13T05:25:57;3.17;;;1.60;;
32932;SDS011;19444;50.518;10.870;2023-07-13T05:28:54;2.42;;;1.63;;
32932;SDS011;19444;50.518;10.870;2023-07-13T05:31:51;2.60;;;1.40;;
32932;SDS011;19444;50.518;10.870;2023-07-13T05:34:49;3.85;;;1.70;;
32932;SDS011;19444;50.518;10.870;2023-07-13T05:37:45;4.63;;;1.35;;
32932;SDS011;19444;50.518;10.870;2023-07-13T05:40:43;4.45;;;1.80;;
32932;SDS011;19444;50.518;10.870;2023-07-13T05:43:41;3.92;;;1.80;;
32932;SDS011;19444;50.518;10.870;2023-07-13T05:46:38;2.33;;;1.30;;
32932;SDS011;19444;50.518;10.870;2023-07-13T05:49:35;3.63;;;1.58;;
32932;SDS011;19444;50.518;10.870;2023-07-13T05:52:32;2.97;;;1.75;;
32932;SDS011;19444;50.518;10.870;2023-07-13T05:55:29;3.25;;;1.67;;
32932;SDS011;19444;50.518;10.870;2023-07-13T05:58:26;3.25;;;1.70;;
32932;SDS011;19444;50.518;10.870;2023-07-13T06:01:23;4.60;;;1.70;;
32932;SDS011;19444;50.518;10.870;2023-07-13T06:04:20;3.22;;;1.90;;
32932;SDS011;19444;50.518;10.870;2023-07-13T06:07:17;3.60;;;1.90;;
32932;SDS011;19444;50.518;10.870;2023-07-13T06:10:14;3.60;;;1.77;;
32932;SDS011;19444;50.518;10.870;2023-07-13T06:13:11;2.72;;;2.03;;
32932;SDS011;19444;50.518;10.870;2023-07-13T06:16:08;3.25;;;1.95;;
32932;SDS011;19444;50.518;10.870;2023-07-13T06:19:05;2.17;;;1.63;;
32932;SDS011;19444;50.518;10.870;2023-07-13T06:22:02;5.00;;;2.05;;
32932;SDS011;19444;50.518;10.870;2023-07-13T06:24:59;3.63;;;1.70;;
32932;SDS011;19444;50.518;10.870;2023-07-13T06:27:56;2.03;;;1.45;;
32932;SDS011;19444;50.518;10.870;2023-07-13T06:30:53;2.53;;;1.50;;
32932;SDS011;19444;50.518;10.870;2023-07-13T06:33:50;4.80;;;1.65;;
32932;SDS011;19444;50.518;10.870;2023-07-13T06:36:47;4.68;;;1.67;;
32932;SDS011;19444;50.518;10.870;2023-07-13T06:39:44;3.08;;;1.30;;
32932;SDS011;19444;50.518;10.870;2023-07-13T06:42:41;4.78;;;1.33;;
32932;SDS011;19444;50.518;10.870;2023-07-13T06:45:42;2.45;;;1.33;;
32932;SDS011;19444;50.518;10.870;2023-07-13T06:48:43;2.50;;;1.60;;
32932;SDS011;19444;50.518;10.870;2023-07-13T06:51:40;2.10;;;1.10;;
32932;SDS011;19444;50.518;10.870;2023-07-13T06:54:37;2.03;;;1.50;;
32932;SDS011;19444;50.518;10.870;2023-07-13T06:57:34;5.05;;;1.60;;
32932;SDS011;19444;50.518;10.870;2023-07-13T07:00:30;4.35;;;1.35;;
32932;SDS011;19444;50.518;10.870;2023-07-13T07:03:28;2.80;;;1.30;;
32932;SDS011;19444;50.518;10.870;2023-07-13T07:06:25;3.20;;;1.48;;
32932;SDS011;19444;50.518;10.870;2023-07-13T07:09:21;4.18;;;1.20;;
32932;SDS011;19444;50.518;10.870;2023-07-13T07:12:18;2.95;;;1.50;;
32932;SDS011;19444;50.518;10.870;2023-07-13T07:15:16;3.97;;;1.60;;
32932;SDS011;19444;50.518;10.870;2023-07-13T07:18:14;4.75;;;2.05;;
32932;SDS011;19444;50.518;10.870;2023-07-13T07:21:11;3.63;;;1.50;;
32932;SDS011;19444;50.518;10.870;2023-07-13T07:24:09;4.03;;;1.90;;
32932;SDS011;19444;50.518;10.870;2023-07-13T07:27:06;4.25;;;1.60;;
32932;SDS011;19444;50.518;10.870;2023-07-13T07:30:06;7.87;;;1.80;;
32932;SDS011;19444;50.518;10.870;2023-07-13T07:36:03;6.30;;;1.88;;
32932;SDS011;19444;50.518;10.870;2023-07-13T07:39:04;2.33;;;1.45;;
32932;SDS011;19444;50.518;10.870;2023-07-13T07:42:01;3.65;;;1.25;;
32932;SDS011;19444;50.518;10.870;2023-07-13T07:44:58;2.67;;;1.13;;
32932;SDS011;19444;50.518;10.870;2023-07-13T07:47:57;1.95;;;0.75;;
32932;SDS011;19444;50.518;10.870;2023-07-13T07:50:55;2.17;;;1.20;;
32932;SDS011;19444;50.518;10.870;2023-07-13T07:53:52;2.10;;;0.80;;
32932;SDS011;19444;50.518;10.870;2023-07-13T07:56:50;3.67;;;0.80;;
32932;SDS011;19444;50.518;10.870;2023-07-13T07:59:50;3.23;;;0.90;;
32932;SDS011;19444;50.518;10.870;2023-07-13T08:02:49;1.70;;;0.90;;
32932;SDS011;19444;50.518;10.870;2023-07-13T08:05:52;1.98;;;0.70;;
32932;SDS011;19444;50.518;10.870;2023-07-13T08:08:53;2.17;;;0.65;;
32932;SDS011;19444;50.518;10.870;2023-07-13T08:11:50;2.65;;;0.80;;
32932;SDS011;19444;50.518;10.870;2023-07-13T08:17:53;3.55;;;1.00;;
32932;SDS011;19444;50.518;10.870;2023-07-13T08:20:53;2.00;;;0.95;;
32932;SDS011;19444;50.518;10.870;2023-07-13T08:23:52;2.17;;;1.13;;
32932;SDS011;19444;50.518;10.870;2023-07-13T08:26:50;3.85;;;0.80;;
32932;SDS011;19444;50.518;10.870;2023-07-13T08:29:48;1.33;;;0.50;;
32932;SDS011;19444;50.518;10.870;2023-07-13T08:32:46;4.07;;;0.68;;
32932;SDS011;19444;50.518;10.870;2023-07-13T08:35:45;6.00;;;0.73;;
32932;SDS011;19444;50.518;10.870;2023-07-13T08:38:45;3.78;;;0.40;;
32932;SDS011;19444;50.518;10.870;2023-07-13T08:41:44;1.75;;;0.50;;
32932;SDS011;19444;50.518;10.870;2023-07-13T08:48:21;1.45;;;0.50;;
32932;SDS011;19444;50.518;10.870;2023-07-13T08:54:44;1.35;;;0.35;;
32932;SDS011;19444;50.518;10.870;2023-07-13T08:57:53;1.20;;;0.30;;
32932;SDS011;19444;50.518;10.870;2023-07-13T09:01:18;1.33;;;0.20;;
32932;SDS011;19444;50.518;10.870;2023-07-13T09:04:22;0.17;;;0.10;;
32932;SDS011;19444;50.518;10.870;2023-07-13T09:10:46;1.15;;;0.10;;
32932;SDS011;19444;50.518;10.870;2023-07-13T09:17:39;0.57;;;0.17;;
32932;SDS011;19444;50.518;10.870;2023-07-13T09:20:45;0.40;;;0.13;;
32932;SDS011;19444;50.518;10.870;2023-07-13T09:23:48;0.65;;;0.10;;
32932;SDS011;19444;50.518;10.870;2023-07-13T09:26:52;0.90;;;0.17;;
32932;SDS011;19444;50.518;10.870;2023-07-13T09:29:51;0.52;;;0.10;;
32932;SDS011;19444;50.518;10.870;2023-07-13T09:33:07;1.80;;;0.20;;
32932;SDS011;19444;50.518;10.870;2023-07-13T09:36:18;0.82;;;0.10;;
32932;SDS011;19444;50.518;10.870;2023-07-13T09:42:33;0.45;;;0.10;;
32932;SDS011;19444;50.518;10.870;2023-07-13T09:45:30;0.65;;;0.10;;
32932;SDS011;19444;50.518;10.870;2023-07-13T09:48:36;0.47;;;0.30;;
32932;SDS011;19444;50.518;10.870;2023-07-13T09:51:33;0.30;;;0.10;;
32932;SDS011;19444;50.518;10.870;2023-07-13T09:54:32;0.75;;;0.10;;
32932;SDS011;19444;50.518;10.870;2023-07-13T09:57:31;0.30;;;0.10;;
32932;SDS011;19444;50.518;10.870;2023-07-13T10:04:02;0.63;;;0.10;;
32932;SDS011;19444;50.518;10.870;2023-07-13T10:07:11;1.02;;;0.20;;
32932;SDS011;19444;50.518;10.870;2023-07-13T10:10:24;1.45;;;0.20;;
32932;SDS011;19444;50.518;10.870;2023-07-13T10:13:33;0.20;;;0.10;;
32932;SDS011;19444;50.518;10.870;2023-07-13T10:16:33;1.60;;;0.20;;
32932;SDS011;19444;50.518;10.870;2023-07-13T10:19:31;0.95;;;0.20;;
32932;SDS011;19444;50.518;10.870;2023-07-13T10:26:01;2.25;;;0.20;;
32932;SDS011;19444;50.518;10.870;2023-07-13T10:29:02;0.30;;;0.20;;
32932;SDS011;19444;50.518;10.870;2023-07-13T10:32:09;1.63;;;0.20;;
32932;SDS011;19444;50.518;10.870;2023-07-13T10:35:13;0.85;;;0.30;;
32932;SDS011;19444;50.518;10.870;2023-07-13T10:38:15;2.90;;;0.22;;
32932;SDS011;19444;50.518;10.870;2023-07-13T10:41:20;1.40;;;0.40;;
32932;SDS011;19444;50.518;10.870;2023-07-13T10:44:25;2.22;;;0.30;;
32932;SDS011;19444;50.518;10.870;2023-07-13T10:47:26;0.50;;;0.20;;
32932;SDS011;19444;50.518;10.870;2023-07-13T10:50:25;1.85;;;0.40;;
32932;SDS011;19444;50.518;10.870;2023-07-13T10:53:28;1.05;;;0.20;;
32932;SDS011;19444;50.518;10.870;2023-07-13T10:56:28;1.75;;;0.30;;
32932;SDS011;19444;50.518;10.870;2023-07-13T10:59:29;0.45;;;0.20;;
32932;SDS011;19444;50.518;10.870;2023-07-13T11:02:27;0.50;;;0.20;;
32932;SDS011;19444;50.518;10.870;2023-07-13T11:05:26;1.23;;;0.75;;
32932;SDS011;19444;50.518;10.870;2023-07-13T11:08:32;1.75;;;0.40;;
32932;SDS011;19444;50.518;10.870;2023-07-13T11:11:48;2.00;;;0.30;;
32932;SDS011;19444;50.518;10.870;2023-07-13T11:17:53;0.82;;;0.40;;
32932;SDS011;19444;50.518;10.870;2023-07-13T11:21:12;1.77;;;0.25;;
32932;SDS011;19444;50.518;10.870;2023-07-13T11:31:13;2.83;;;0.63;;
32932;SDS011;19444;50.518;10.870;2023-07-13T11:34:15;1.13;;;0.40;;
32932;SDS011;19444;50.518;10.870;2023-07-13T11:37:15;1.23;;;0.40;;
32932;SDS011;19444;50.518;10.870;2023-07-13T11:40:14;1.25;;;0.30;;
32932;SDS011;19444;50.518;10.870;2023-07-13T11:43:12;1.48;;;0.55;;
32932;SDS011;19444;50.518;10.870;2023-07-13T11:46:23;1.17;;;0.30;;
32932;SDS011;19444;50.518;10.870;2023-07-13T11:49:24;0.90;;;0.20;;
32932;SDS011;19444;50.518;10.870;2023-07-13T11:55:26;1.55;;;0.60;;
32932;SDS011;19444;50.518;10.870;2023-07-13T11:58:26;1.63;;;0.40;;
32932;SDS011;19444;50.518;10.870;2023-07-13T12:01:28;0.73;;;0.20;;
32932;SDS011;19444;50.518;10.870;2023-07-13T12:04:34;1.27;;;0.45;;
32932;SDS011;19444;50.518;10.870;2023-07-13T12:07:35;0.80;;;0.30;;
32932;SDS011;19444;50.518;10.870;2023-07-13T12:10:33;1.30;;;0.28;;
32932;SDS011;19444;50.518;10.870;2023-07-13T12:13:35;1.42;;;0.40;;
32932;SDS011;19444;50.518;10.870;2023-07-13T12:16:34;3.33;;;0.40;;
32932;SDS011;19444;50.518;10.870;2023-07-13T12:19:33;1.35;;;0.47;;
32932;SDS011;19444;50.518;10.870;2023-07-13T12:22:31;1.00;;;0.30;;
32932;SDS011;19444;50.518;10.870;2023-07-13T12:25:30;1.63;;;0.38;;
32932;SDS011;19444;50.518;10.870;2023-07-13T12:28:36;1.45;;;0.25;;
32932;SDS011;19444;50.518;10.870;2023-07-13T12:31:49;1.02;;;0.40;;
32932;SDS011;19444;50.518;10.870;2023-07-13T12:34:52;0.73;;;0.40;;
32932;SDS011;19444;50.518;10.870;2023-07-13T12:37:52;2.65;;;0.50;;
32932;SDS011;19444;50.518;10.870;2023-07-13T12:40:50;2.13;;;0.47;;
32932;SDS011;19444;50.518;10.870;2023-07-13T12:43:48;0.73;;;0.25;;
32932;SDS011;19444;50.518;10.870;2023-07-13T12:46:52;1.25;;;0.40;;
32932;SDS011;19444;50.518;10.870;2023-07-13T12:50:02;2.00;;;0.40;;
32932;SDS011;19444;50.518;10.870;2023-07-13T12:53:03;4.32;;;0.60;;
32932;SDS011;19444;50.518;10.870;2023-07-13T12:56:06;2.63;;;0.50;;
32932;SDS011;19444;50.518;10.870;2023-07-13T12:59:17;1.90;;;0.40;;
32932;SDS011;19444;50.518;10.870;2023-07-13T13:02:35;1.67;;;0.30;;
32932;SDS011;19444;50.518;10.870;2023-07-13T13:05:32;0.80;;;0.32;;
32932;SDS011;19444;50.518;10.870;2023-07-13T13:08:31;1.13;;;0.30;;
32932;SDS011;19444;50.518;10.870;2023-07-13T13:11:30;0.75;;;0.20;;
32932;SDS011;19444;50.518;10.870;2023-07-13T13:14:28;1.08;;;0.32;;
32932;SDS011;19444;50.518;10.870;2023-07-13T13:17:26;1.45;;;0.30;;
32932;SDS011;19444;50.518;10.870;2023-07-13T13:20:27;1.40;;;0.30;;
32932;SDS011;19444;50.518;10.870;2023-07-13T13:23:24;2.53;;;0.50;;
32932;SDS011;19444;50.518;10.870;2023-07-13T13:26:21;1.10;;;0.40;;
32932;SDS011;19444;50.518;10.870;2023-07-13T13:29:20;2.47;;;0.40;;
32932;SDS011;19444;50.518;10.870;2023-07-13T13:32:22;0.55;;;0.30;;
32932;SDS011;19444;50.518;10.870;2023-07-13T13:35:20;3.25;;;0.30;;
32932;SDS011;19444;50.518;10.870;2023-07-13T13:38:19;3.13;;;0.40;;
32932;SDS011;19444;50.518;10.870;2023-07-13T13:41:20;2.67;;;0.40;;
32932;SDS011;19444;50.518;10.870;2023-07-13T13:44:17;2.03;;;0.40;;
32932;SDS011;19444;50.518;10.870;2023-07-13T13:47:20;1.25;;;0.32;;
32932;SDS011;19444;50.518;10.870;2023-07-13T13:50:29;1.20;;;0.45;;
32932;SDS011;19444;50.518;10.870;2023-07-13T13:53:26;1.35;;;0.32;;
32932;SDS011;19444;50.518;10.870;2023-07-13T13:56:24;2.47;;;0.40;;
32932;SDS011;19444;50.518;10.870;2023-07-13T13:59:22;1.30;;;0.55;;
32932;SDS011;19444;50.518;10.870;2023-07-13T14:02:26;1.88;;;0.50;;
32932;SDS011;19444;50.518;10.870;2023-07-13T14:05:27;1.20;;;0.50;;
32932;SDS011;19444;50.518;10.870;2023-07-13T14:08:24;3.28;;;0.45;;
32932;SDS011;19444;50.518;10.870;2023-07-13T14:11:22;1.45;;;0.40;;
32932;SDS011;19444;50.518;10.870;2023-07-13T14:14:20;1.00;;;0.30;;
32932;SDS011;19444;50.518;10.870;2023-07-13T14:17:24;0.88;;;0.40;;
32932;SDS011;19444;50.518;10.870;2023-07-13T14:20:24;1.42;;;0.57;;
32932;SDS011;19444;50.518;10.870;2023-07-13T14:23:21;2.83;;;0.50;;
32932;SDS011;19444;50.518;10.870;2023-07-13T14:26:20;1.58;;;0.73;;
32932;SDS011;19444;50.518;10.870;2023-07-13T14:29:20;1.67;;;0.32;;
32932;SDS011;19444;50.518;10.870;2023-07-13T14:32:20;0.87;;;0.33;;
32932;SDS011;19444;50.518;10.870;2023-07-13T14:35:20;1.30;;;0.40;;
32932;SDS011;19444;50.518;10.870;2023-07-13T14:38:20;0.95;;;0.38;;
32932;SDS011;19444;50.518;10.870;2023-07-13T14:41:17;2.88;;;1.27;;
32932;SDS011;19444;50.518;10.870;2023-07-13T14:44:15;1.20;;;0.45;;
32932;SDS011;19444;50.518;10.870;2023-07-13T14:47:14;1.67;;;0.40;;
32932;SDS011;19444;50.518;10.870;2023-07-13T14:50:30;1.48;;;0.40;;
32932;SDS011;19444;50.518;10.870;2023-07-13T14:53:28;1.00;;;0.50;;
32932;SDS011;19444;50.518;10.870;2023-07-13T14:56:25;3.40;;;0.38;;
32932;SDS011;19444;50.518;10.870;2023-07-13T14:59:22;1.90;;;0.50;;
32932;SDS011;19444;50.518;10.870;2023-07-13T15:02:33;2.08;;;0.40;;
32932;SDS011;19444;50.518;10.870;2023-07-13T15:05:33;2.90;;;0.47;;
32932;SDS011;19444;50.518;10.870;2023-07-13T15:08:30;2.78;;;0.40;;
32932;SDS011;19444;50.518;10.870;2023-07-13T15:11:27;1.25;;;0.30;;
32932;SDS011;19444;50.518;10.870;2023-07-13T15:14:25;4.07;;;0.50;;
32932;SDS011;19444;50.518;10.870;2023-07-13T15:20:45;0.82;;;0.40;;
32932;SDS011;19444;50.518;10.870;2023-07-13T15:23:44;0.97;;;0.50;;
32932;SDS011;19444;50.518;10.870;2023-07-13T15:26:42;1.75;;;0.40;;
32932;SDS011;19444;50.518;10.870;2023-07-13T15:29:44;2.17;;;0.55;;
32932;SDS011;19444;50.518;10.870;2023-07-13T15:32:42;1.02;;;0.40;;
32932;SDS011;19444;50.518;10.870;2023-07-13T15:35:41;1.17;;;0.30;;
32932;SDS011;19444;50.518;10.870;2023-07-13T15:38:38;0.40;;;0.30;;
32932;SDS011;19444;50.518;10.870;2023-07-13T15:41:37;0.98;;;0.40;;
32932;SDS011;19444;50.518;10.870;2023-07-13T15:44:34;2.03;;;0.40;;
32932;SDS011;19444;50.518;10.870;2023-07-13T15:47:32;2.08;;;0.40;;
32932;SDS011;19444;50.518;10.870;2023-07-13T15:50:31;1.80;;;0.40;;
32932;SDS011;19444;50.518;10.870;2023-07-13T15:53:42;1.40;;;0.40;;
32932;SDS011;19444;50.518;10.870;2023-07-13T15:56:40;1.58;;;0.50;;
32932;SDS011;19444;50.518;10.870;2023-07-13T15:59:37;2.05;;;0.40;;
32932;SDS011;19444;50.518;10.870;2023-07-13T16:02:34;0.98;;;0.40;;
32932;SDS011;19444;50.518;10.870;2023-07-13T16:05:31;1.38;;;0.40;;
32932;SDS011;19444;50.518;10.870;2023-07-13T16:08:30;1.63;;;0.40;;
32932;SDS011;19444;50.518;10.870;2023-07-13T16:11:36;1.38;;;0.50;;
32932;SDS011;19444;50.518;10.870;2023-07-13T16:14:35;1.50;;;0.45;;
32932;SDS011;19444;50.518;10.870;2023-07-13T16:17:32;2.38;;;0.60;;
32932;SDS011;19444;50.518;10.870;2023-07-13T16:20:29;1.00;;;0.50;;
32932;SDS011;19444;50.518;10.870;2023-07-13T16:23:26;2.28;;;0.70;;
32932;SDS011;19444;50.518;10.870;2023-07-13T16:26:30;2.05;;;0.40;;
32932;SDS011;19444;50.518;10.870;2023-07-13T16:29:36;4.05;;;0.70;;
32932;SDS011;19444;50.518;10.870;2023-07-13T16:32:34;2.08;;;0.63;;
32932;SDS011;19444;50.518;10.870;2023-07-13T16:35:35;2.53;;;0.82;;
32932;SDS011;19444;50.518;10.870;2023-07-13T16:38:34;0.82;;;0.30;;
32932;SDS011;19444;50.518;10.870;2023-07-13T16:41:31;1.45;;;0.70;;
32932;SDS011;19444;50.518;10.870;2023-07-13T16:44:29;0.98;;;0.43;;
32932;SDS011;19444;50.518;10.870;2023-07-13T16:47:27;3.38;;;0.68;;
32932;SDS011;19444;50.518;10.870;2023-07-13T16:50:25;1.30;;;0.60;;
32932;SDS011;19444;50.518;10.870;2023-07-13T16:53:28;4.65;;;1.10;;
32932;SDS011;19444;50.518;10.870;2023-07-13T16:59:24;1.38;;;0.50;;
32932;SDS011;19444;50.518;10.870;2023-07-13T17:02:31;1.75;;;0.50;;
32932;SDS011;19444;50.518;10.870;2023-07-13T17:05:35;3.40;;;0.75;;
32932;SDS011;19444;50.518;10.870;2023-07-13T17:08:37;2.08;;;0.63;;
32932;SDS011;19444;50.518;10.870;2023-07-13T17:11:34;1.70;;;0.50;;
32932;SDS011;19444;50.518;10.870;2023-07-13T17:14:31;2.53;;;0.60;;
32932;SDS011;19444;50.518;10.870;2023-07-13T17:17:33;1.48;;;0.77;;
32932;SDS011;19444;50.518;10.870;2023-07-13T17:20:39;2.10;;;0.55;;
32932;SDS011;19444;50.518;10.870;2023-07-13T17:23:41;2.53;;;0.52;;
32932;SDS011;19444;50.518;10.870;2023-07-13T17:26:39;1.65;;;0.52;;
32932;SDS011;19444;50.518;10.870;2023-07-13T17:29:38;1.63;;;0.65;;
32932;SDS011;19444;50.518;10.870;2023-07-13T17:32:35;1.27;;;0.55;;
32932;SDS011;19444;50.518;10.870;2023-07-13T17:35:33;2.72;;;0.75;;
32932;SDS011;19444;50.518;10.870;2023-07-13T17:41:38;1.20;;;0.60;;
32932;SDS011;19444;50.518;10.870;2023-07-13T17:44:39;2.33;;;0.80;;
32932;SDS011;19444;50.518;10.870;2023-07-13T17:47:37;2.47;;;0.77;;
32932;SDS011;19444;50.518;10.870;2023-07-13T17:50:36;1.20;;;0.55;;
32932;SDS011;19444;50.518;10.870;2023-07-13T17:53:33;2.22;;;0.70;;
32932;SDS011;19444;50.518;10.870;2023-07-13T17:56:30;2.45;;;0.60;;
32932;SDS011;19444;50.518;10.870;2023-07-13T17:59:28;1.70;;;0.70;;
32932;SDS011;19444;50.518;10.870;2023-07-13T18:02:26;1.27;;;0.68;;
32932;SDS011;19444;50.518;10.870;2023-07-13T18:05:28;1.42;;;0.60;;
32932;SDS011;19444;50.518;10.870;2023-07-13T18:08:30;1.65;;;0.60;;
32932;SDS011;19444;50.518;10.870;2023-07-13T18:11:29;1.70;;;0.77;;
32932;SDS011;19444;50.518;10.870;2023-07-13T18:14:26;2.25;;;0.55;;
32932;SDS011;19444;50.518;10.870;2023-07-13T18:17:24;2.05;;;0.60;;
32932;SDS011;19444;50.518;10.870;2023-07-13T18:20:22;1.98;;;0.50;;
32932;SDS011;19444;50.518;10.870;2023-07-13T18:23:19;1.77;;;0.50;;
32932;SDS011;19444;50.518;10.870;2023-07-13T18:26:19;1.05;;;0.55;;
32932;SDS011;19444;50.518;10.870;2023-07-13T18:29:16;2.97;;;0.90;;
32932;SDS011;19444;50.518;10.870;2023-07-13T18:32:15;2.92;;;0.90;;
32932;SDS011;19444;50.518;10.870;2023-07-13T18:35:18;1.45;;;0.82;;